This is the latest recevied weather packets stored in our database for station/object VU2EXP-13. If no packets are shown the sender has not sent any weather packets the latest 1 day(s).
| Time | Temp. | Humidity | Pressure | Rain* | Wind** | Luminosity | Snow |
|---|---|---|---|---|---|---|---|
| 1778167569 | 35° C | 42% | 990.6 hPa | - | - | - | - |
| 1778166671 | 35.56° C | 41% | 990.4 hPa | - | - | - | - |
| 1778165770 | 35.56° C | 41% | 990.2 hPa | - | - | - | - |
| 1778159468 | 37.78° C | 34% | 988.7 hPa | - | - | - | - |
| 1778158568 | 38.33° C | 34% | 988.5 hPa | - | - | - | - |
| 1778156768 | 38.89° C | 31% | 988.2 hPa | - | - | - | - |
| 1778154068 | 41.67° C | 19% | 987.8 hPa | - | - | - | - |
| 1778153167 | 40.56° C | 16% | 987.8 hPa | - | - | - | - |
| 1778152268 | 42.78° C | 15% | 988 hPa | - | - | - | - |
| 1778148667 | 42.78° C | 15% | 988.4 hPa | - | - | - | - |
| 1778146866 | 43.33° C | 15% | 988.9 hPa | - | - | - | - |
| 1778145966 | 43.33° C | 14% | 989.1 hPa | - | - | - | - |
| 1778145066 | 43.33° C | 14% | 989.3 hPa | - | - | - | - |
| 1778143265 | 42.78° C | 16% | 989.8 hPa | - | - | - | - |
| 1778141465 | 41.67° C | 18% | 990.3 hPa | - | - | - | - |
| 1778140565 | 41.11° C | 20% | 990.6 hPa | - | - | - | - |
| 1778138765 | 39.44° C | 21% | 991 hPa | - | - | - | - |
| 1778135165 | 37.22° C | 27% | 991.9 hPa | - | - | - | - |
| 1778134264 | 36.67° C | 28% | 992 hPa | - | - | - | - |
| 1778131564 | 35.56° C | 38% | 992.5 hPa | - | - | - | - |
| 1778129764 | 35° C | 44% | 992.7 hPa | - | - | - | - |
| 1778126164 | 32.78° C | 55% | 992.7 hPa | - | - | - | - |
| 1778125263 | 32.22° C | 57% | 992.7 hPa | - | - | - | - |
| 1778122563 | 31.11° C | 60% | 992.5 hPa | - | - | - | - |
| 1778120763 | 30.56° C | 61% | 992.3 hPa | - | - | - | - |
* Rain since midnight (hover to see other rain measurements)
** Current wind speed in m/s (hover to see current wind gust speed)